sensor_id;sensor_type;location;lat;lon;timestamp;temperature;humidity
19363;DHT22;9817;50.80926400;5.16316200;2023-08-17T00:01:47;22.10;99.90
19363;DHT22;9817;50.80926400;5.16316200;2023-08-17T00:04:12;22.10;99.90
19363;DHT22;9817;50.80926400;5.16316200;2023-08-17T00:06:38;22.10;99.90
19363;DHT22;9817;50.80926400;5.16316200;2023-08-17T00:09:04;22.00;99.90
19363;DHT22;9817;50.80926400;5.16316200;2023-08-17T00:11:30;22.00;99.90
19363;DHT22;9817;50.80926400;5.16316200;2023-08-17T00:13:55;22.00;99.90
19363;DHT22;9817;50.80926400;5.16316200;2023-08-17T00:16:21;21.90;99.90
19363;DHT22;9817;50.80926400;5.16316200;2023-08-17T00:18:49;21.90;99.90
19363;DHT22;9817;50.80926400;5.16316200;2023-08-17T00:21:14;22.00;99.90
19363;DHT22;9817;50.80926400;5.16316200;2023-08-17T00:23:40;22.00;99.90
19363;DHT22;9817;50.80926400;5.16316200;2023-08-17T00:26:06;22.00;99.90
19363;DHT22;9817;50.80926400;5.16316200;2023-08-17T00:28:32;21.90;99.90
19363;DHT22;9817;50.80926400;5.16316200;2023-08-17T00:31:00;21.90;99.90
19363;DHT22;9817;50.80926400;5.16316200;2023-08-17T00:33:25;21.90;99.90
19363;DHT22;9817;50.80926400;5.16316200;2023-08-17T00:35:51;21.90;99.90
19363;DHT22;9817;50.80926400;5.16316200;2023-08-17T00:38:17;21.80;99.90
19363;DHT22;9817;50.80926400;5.16316200;2023-08-17T00:40:43;21.80;99.90
19363;DHT22;9817;50.80926400;5.16316200;2023-08-17T00:43:09;21.80;99.90
19363;DHT22;9817;50.80926400;5.16316200;2023-08-17T00:45:35;21.80;99.90
19363;DHT22;9817;50.80926400;5.16316200;2023-08-17T00:48:01;21.70;99.90
19363;DHT22;9817;50.80926400;5.16316200;2023-08-17T00:50:27;21.70;99.90
19363;DHT22;9817;50.80926400;5.16316200;2023-08-17T00:52:54;21.80;99.90
19363;DHT22;9817;50.80926400;5.16316200;2023-08-17T00:55:21;21.80;99.90
19363;DHT22;9817;50.80926400;5.16316200;2023-08-17T00:57:47;21.80;99.90
19363;DHT22;9817;50.80926400;5.16316200;2023-08-17T01:00:13;21.70;99.90
19363;DHT22;9817;50.80926400;5.16316200;2023-08-17T01:02:42;21.80;99.90
19363;DHT22;9817;50.80926400;5.16316200;2023-08-17T01:05:08;21.70;99.90
19363;DHT22;9817;50.80926400;5.16316200;2023-08-17T01:07:34;21.70;99.90
19363;DHT22;9817;50.80926400;5.16316200;2023-08-17T01:10:01;21.80;99.90
19363;DHT22;9817;50.80926400;5.16316200;2023-08-17T01:13:18;21.80;99.90
19363;DHT22;9817;50.80926400;5.16316200;2023-08-17T01:15:37;21.70;99.90
19363;DHT22;9817;50.80926400;5.16316200;2023-08-17T01:18:22;21.70;99.90
19363;DHT22;9817;50.80926400;5.16316200;2023-08-17T01:20:49;21.70;99.90
19363;DHT22;9817;50.80926400;5.16316200;2023-08-17T01:23:15;21.60;99.90
19363;DHT22;9817;50.80926400;5.16316200;2023-08-17T01:25:41;21.60;99.90
19363;DHT22;9817;50.80926400;5.16316200;2023-08-17T01:28:07;21.70;99.90
19363;DHT22;9817;50.80926400;5.16316200;2023-08-17T01:30:39;21.60;99.90
19363;DHT22;9817;50.80926400;5.16316200;2023-08-17T01:33:11;21.60;99.90
19363;DHT22;9817;50.80926400;5.16316200;2023-08-17T01:35:44;21.60;99.90
19363;DHT22;9817;50.80926400;5.16316200;2023-08-17T01:38:14;21.60;99.90
19363;DHT22;9817;50.80926400;5.16316200;2023-08-17T01:40:42;21.50;99.90
19363;DHT22;9817;50.80926400;5.16316200;2023-08-17T01:43:10;21.50;99.90
19363;DHT22;9817;50.80926400;5.16316200;2023-08-17T01:45:36;21.50;99.90
19363;DHT22;9817;50.80926400;5.16316200;2023-08-17T01:48:02;21.50;99.90
19363;DHT22;9817;50.80926400;5.16316200;2023-08-17T01:50:28;21.50;99.90
19363;DHT22;9817;50.80926400;5.16316200;2023-08-17T01:52:54;21.50;99.90
19363;DHT22;9817;50.80926400;5.16316200;2023-08-17T01:55:21;21.50;99.90
19363;DHT22;9817;50.80926400;5.16316200;2023-08-17T01:57:48;21.50;99.90
19363;DHT22;9817;50.80926400;5.16316200;2023-08-17T02:00:15;21.50;99.90
19363;DHT22;9817;50.80926400;5.16316200;2023-08-17T02:02:41;21.50;99.90
19363;DHT22;9817;50.80926400;5.16316200;2023-08-17T02:05:07;21.50;99.90
19363;DHT22;9817;50.80926400;5.16316200;2023-08-17T02:07:33;21.50;99.90
19363;DHT22;9817;50.80926400;5.16316200;2023-08-17T02:09:59;21.40;99.90
19363;DHT22;9817;50.80926400;5.16316200;2023-08-17T02:12:25;21.40;99.90
19363;DHT22;9817;50.80926400;5.16316200;2023-08-17T02:14:50;21.50;99.90
19363;DHT22;9817;50.80926400;5.16316200;2023-08-17T02:17:16;21.50;99.90
19363;DHT22;9817;50.80926400;5.16316200;2023-08-17T02:19:45;21.40;99.90
19363;DHT22;9817;50.80926400;5.16316200;2023-08-17T02:22:13;21.40;99.90
19363;DHT22;9817;50.80926400;5.16316200;2023-08-17T02:24:38;21.30;99.90
19363;DHT22;9817;50.80926400;5.16316200;2023-08-17T02:27:04;21.30;99.90
19363;DHT22;9817;50.80926400;5.16316200;2023-08-17T02:29:30;21.30;99.90
19363;DHT22;9817;50.80926400;5.16316200;2023-08-17T02:31:55;21.30;99.90
19363;DHT22;9817;50.80926400;5.16316200;2023-08-17T02:34:21;21.30;99.90
19363;DHT22;9817;50.80926400;5.16316200;2023-08-17T02:36:47;21.40;99.90
19363;DHT22;9817;50.80926400;5.16316200;2023-08-17T02:39:12;21.30;99.90
19363;DHT22;9817;50.80926400;5.16316200;2023-08-17T02:41:38;21.30;99.90
19363;DHT22;9817;50.80926400;5.16316200;2023-08-17T02:44:04;21.40;99.90
19363;DHT22;9817;50.80926400;5.16316200;2023-08-17T02:46:30;21.30;99.90
19363;DHT22;9817;50.80926400;5.16316200;2023-08-17T02:48:56;21.20;99.90
19363;DHT22;9817;50.80926400;5.16316200;2023-08-17T02:51:22;21.30;99.90
19363;DHT22;9817;50.80926400;5.16316200;2023-08-17T02:53:47;21.30;99.90
19363;DHT22;9817;50.80926400;5.16316200;2023-08-17T02:56:13;21.20;99.90
19363;DHT22;9817;50.80926400;5.16316200;2023-08-17T02:58:39;21.20;99.90
19363;DHT22;9817;50.80926400;5.16316200;2023-08-17T03:01:08;21.10;99.90
19363;DHT22;9817;50.80926400;5.16316200;2023-08-17T03:03:34;21.00;99.90
19363;DHT22;9817;50.80926400;5.16316200;2023-08-17T03:06:01;21.10;99.90
19363;DHT22;9817;50.80926400;5.16316200;2023-08-17T03:08:29;21.10;99.90
19363;DHT22;9817;50.80926400;5.16316200;2023-08-17T03:10:55;21.10;99.90
19363;DHT22;9817;50.80926400;5.16316200;2023-08-17T03:13:20;21.10;99.90
19363;DHT22;9817;50.80926400;5.16316200;2023-08-17T03:15:46;21.20;99.90
19363;DHT22;9817;50.80926400;5.16316200;2023-08-17T03:18:12;21.20;99.90
19363;DHT22;9817;50.80926400;5.16316200;2023-08-17T03:20:37;21.20;99.90
19363;DHT22;9817;50.80926400;5.16316200;2023-08-17T03:23:03;21.30;99.90
19363;DHT22;9817;50.80926400;5.16316200;2023-08-17T03:25:33;21.30;99.90
19363;DHT22;9817;50.80926400;5.16316200;2023-08-17T03:27:59;21.40;99.90
19363;DHT22;9817;50.80926400;5.16316200;2023-08-17T03:30:25;21.30;99.90
19363;DHT22;9817;50.80926400;5.16316200;2023-08-17T03:32:50;21.40;99.90
19363;DHT22;9817;50.80926400;5.16316200;2023-08-17T03:35:16;21.40;99.90
19363;DHT22;9817;50.80926400;5.16316200;2023-08-17T03:37:42;21.40;99.90
19363;DHT22;9817;50.80926400;5.16316200;2023-08-17T03:40:08;21.40;99.90
19363;DHT22;9817;50.80926400;5.16316200;2023-08-17T03:42:33;21.40;99.90
19363;DHT22;9817;50.80926400;5.16316200;2023-08-17T03:44:59;21.40;99.90
19363;DHT22;9817;50.80926400;5.16316200;2023-08-17T03:47:25;21.30;99.90
19363;DHT22;9817;50.80926400;5.16316200;2023-08-17T03:49:52;21.20;99.90
19363;DHT22;9817;50.80926400;5.16316200;2023-08-17T03:52:17;21.10;99.90
19363;DHT22;9817;50.80926400;5.16316200;2023-08-17T03:54:43;21.00;99.90
19363;DHT22;9817;50.80926400;5.16316200;2023-08-17T03:57:09;21.10;99.90
19363;DHT22;9817;50.80926400;5.16316200;2023-08-17T03:59:34;21.10;99.90
19363;DHT22;9817;50.80926400;5.16316200;2023-08-17T04:02:00;21.20;99.90
19363;DHT22;9817;50.80926400;5.16316200;2023-08-17T04:04:26;21.20;99.90
19363;DHT22;9817;50.80926400;5.16316200;2023-08-17T04:06:52;21.20;99.90
19363;DHT22;9817;50.80926400;5.16316200;2023-08-17T04:09:17;21.10;99.90
19363;DHT22;9817;50.80926400;5.16316200;2023-08-17T04:11:43;21.20;99.90
19363;DHT22;9817;50.80926400;5.16316200;2023-08-17T04:14:08;21.10;99.90
19363;DHT22;9817;50.80926400;5.16316200;2023-08-17T04:16:34;21.10;99.90
19363;DHT22;9817;50.80926400;5.16316200;2023-08-17T04:19:00;21.10;99.90
19363;DHT22;9817;50.80926400;5.16316200;2023-08-17T04:21:26;21.10;99.90
19363;DHT22;9817;50.80926400;5.16316200;2023-08-17T04:23:52;21.10;99.90
19363;DHT22;9817;50.80926400;5.16316200;2023-08-17T04:26:17;21.10;99.90
19363;DHT22;9817;50.80926400;5.16316200;2023-08-17T04:28:43;21.20;99.90
19363;DHT22;9817;50.80926400;5.16316200;2023-08-17T04:31:08;21.20;99.90
19363;DHT22;9817;50.80926400;5.16316200;2023-08-17T04:33:34;21.10;99.90
19363;DHT22;9817;50.80926400;5.16316200;2023-08-17T04:36:00;21.10;99.90
19363;DHT22;9817;50.80926400;5.16316200;2023-08-17T04:38:26;21.00;99.90
19363;DHT22;9817;50.80926400;5.16316200;2023-08-17T04:40:52;21.00;99.90
19363;DHT22;9817;50.80926400;5.16316200;2023-08-17T04:43:18;21.00;99.90
19363;DHT22;9817;50.80926400;5.16316200;2023-08-17T04:45:43;21.00;99.90
19363;DHT22;9817;50.80926400;5.16316200;2023-08-17T04:48:13;21.10;99.90
19363;DHT22;9817;50.80926400;5.16316200;2023-08-17T04:50:39;21.00;99.90
19363;DHT22;9817;50.80926400;5.16316200;2023-08-17T04:53:05;21.00;99.90
19363;DHT22;9817;50.80926400;5.16316200;2023-08-17T04:55:31;21.00;99.90
19363;DHT22;9817;50.80926400;5.16316200;2023-08-17T04:58:00;20.90;99.90
19363;DHT22;9817;50.80926400;5.16316200;2023-08-17T05:00:25;20.90;99.90
19363;DHT22;9817;50.80926400;5.16316200;2023-08-17T05:02:57;20.90;99.90
19363;DHT22;9817;50.80926400;5.16316200;2023-08-17T05:05:23;21.00;99.90
19363;DHT22;9817;50.80926400;5.16316200;2023-08-17T05:07:49;20.90;99.90
19363;DHT22;9817;50.80926400;5.16316200;2023-08-17T05:10:15;20.80;99.90
19363;DHT22;9817;50.80926400;5.16316200;2023-08-17T05:12:40;20.70;99.90
19363;DHT22;9817;50.80926400;5.16316200;2023-08-17T05:15:06;20.80;99.90
19363;DHT22;9817;50.80926400;5.16316200;2023-08-17T05:17:32;20.60;99.90
19363;DHT22;9817;50.80926400;5.16316200;2023-08-17T05:19:58;20.50;99.90
19363;DHT22;9817;50.80926400;5.16316200;2023-08-17T05:22:24;20.50;99.90
19363;DHT22;9817;50.80926400;5.16316200;2023-08-17T05:24:49;20.60;99.90
19363;DHT22;9817;50.80926400;5.16316200;2023-08-17T05:27:15;20.60;99.90
19363;DHT22;9817;50.80926400;5.16316200;2023-08-17T05:29:41;20.60;99.90
19363;DHT22;9817;50.80926400;5.16316200;2023-08-17T05:32:06;20.70;99.90
19363;DHT22;9817;50.80926400;5.16316200;2023-08-17T05:34:32;20.80;99.90
19363;DHT22;9817;50.80926400;5.16316200;2023-08-17T05:36:58;20.80;99.90
19363;DHT22;9817;50.80926400;5.16316200;2023-08-17T05:39:23;20.70;99.90
19363;DHT22;9817;50.80926400;5.16316200;2023-08-17T05:41:49;20.80;99.90
19363;DHT22;9817;50.80926400;5.16316200;2023-08-17T05:44:15;20.90;99.90
19363;DHT22;9817;50.80926400;5.16316200;2023-08-17T05:46:41;20.90;99.90
19363;DHT22;9817;50.80926400;5.16316200;2023-08-17T05:49:06;20.90;99.90
19363;DHT22;9817;50.80926400;5.16316200;2023-08-17T05:51:32;20.90;99.90
19363;DHT22;9817;50.80926400;5.16316200;2023-08-17T05:53:58;21.00;99.90
19363;DHT22;9817;50.80926400;5.16316200;2023-08-17T05:56:24;20.90;99.90
19363;DHT22;9817;50.80926400;5.16316200;2023-08-17T05:58:49;20.90;99.90
19363;DHT22;9817;50.80926400;5.16316200;2023-08-17T06:01:15;20.80;99.90
19363;DHT22;9817;50.80926400;5.16316200;2023-08-17T06:03:41;20.60;99.90
19363;DHT22;9817;50.80926400;5.16316200;2023-08-17T06:06:07;20.60;99.90
19363;DHT22;9817;50.80926400;5.16316200;2023-08-17T06:08:33;20.60;99.90
19363;DHT22;9817;50.80926400;5.16316200;2023-08-17T06:10:59;20.80;99.90
19363;DHT22;9817;50.80926400;5.16316200;2023-08-17T06:13:24;20.60;99.90
19363;DHT22;9817;50.80926400;5.16316200;2023-08-17T06:15:50;20.50;99.90
19363;DHT22;9817;50.80926400;5.16316200;2023-08-17T06:18:16;20.40;99.90
19363;DHT22;9817;50.80926400;5.16316200;2023-08-17T06:20:42;20.50;99.90
19363;DHT22;9817;50.80926400;5.16316200;2023-08-17T06:23:07;20.60;99.90
19363;DHT22;9817;50.80926400;5.16316200;2023-08-17T06:25:33;20.50;99.90
19363;DHT22;9817;50.80926400;5.16316200;2023-08-17T06:28:00;20.50;99.90
19363;DHT22;9817;50.80926400;5.16316200;2023-08-17T06:30:26;20.60;99.90
19363;DHT22;9817;50.80926400;5.16316200;2023-08-17T06:32:52;20.70;99.90
19363;DHT22;9817;50.80926400;5.16316200;2023-08-17T06:35:17;20.70;99.90
19363;DHT22;9817;50.80926400;5.16316200;2023-08-17T06:37:43;20.60;99.90
19363;DHT22;9817;50.80926400;5.16316200;2023-08-17T06:40:09;20.60;99.90
19363;DHT22;9817;50.80926400;5.16316200;2023-08-17T06:42:35;20.50;99.90
19363;DHT22;9817;50.80926400;5.16316200;2023-08-17T06:45:01;20.60;99.90
19363;DHT22;9817;50.80926400;5.16316200;2023-08-17T06:47:27;20.80;99.90
19363;DHT22;9817;50.80926400;5.16316200;2023-08-17T06:49:52;20.90;99.90
19363;DHT22;9817;50.80926400;5.16316200;2023-08-17T06:52:18;20.90;99.90
19363;DHT22;9817;50.80926400;5.16316200;2023-08-17T06:54:44;21.00;99.90
19363;DHT22;9817;50.80926400;5.16316200;2023-08-17T06:57:09;21.00;99.90
19363;DHT22;9817;50.80926400;5.16316200;2023-08-17T06:59:35;21.00;99.90
19363;DHT22;9817;50.80926400;5.16316200;2023-08-17T07:02:01;21.10;99.90
19363;DHT22;9817;50.80926400;5.16316200;2023-08-17T07:04:26;21.20;99.90
19363;DHT22;9817;50.80926400;5.16316200;2023-08-17T07:06:52;21.40;99.90
19363;DHT22;9817;50.80926400;5.16316200;2023-08-17T07:09:18;21.40;99.90
19363;DHT22;9817;50.80926400;5.16316200;2023-08-17T07:11:44;21.50;99.90
19363;DHT22;9817;50.80926400;5.16316200;2023-08-17T07:14:10;21.70;99.90
19363;DHT22;9817;50.80926400;5.16316200;2023-08-17T07:16:35;21.80;99.90
19363;DHT22;9817;50.80926400;5.16316200;2023-08-17T07:19:02;21.90;99.90
19363;DHT22;9817;50.80926400;5.16316200;2023-08-17T07:21:28;22.00;99.90
19363;DHT22;9817;50.80926400;5.16316200;2023-08-17T07:23:54;21.90;99.90
19363;DHT22;9817;50.80926400;5.16316200;2023-08-17T07:26:21;21.80;99.90
19363;DHT22;9817;50.80926400;5.16316200;2023-08-17T07:28:48;21.80;99.90
19363;DHT22;9817;50.80926400;5.16316200;2023-08-17T07:31:14;21.80;99.90
19363;DHT22;9817;50.80926400;5.16316200;2023-08-17T07:33:40;21.70;99.90
19363;DHT22;9817;50.80926400;5.16316200;2023-08-17T07:36:05;21.60;99.90
19363;DHT22;9817;50.80926400;5.16316200;2023-08-17T07:38:31;21.60;99.90
19363;DHT22;9817;50.80926400;5.16316200;2023-08-17T07:40:57;21.40;99.90
19363;DHT22;9817;50.80926400;5.16316200;2023-08-17T07:43:23;21.40;99.90
19363;DHT22;9817;50.80926400;5.16316200;2023-08-17T07:45:56;21.40;99.90
19363;DHT22;9817;50.80926400;5.16316200;2023-08-17T07:48:21;21.40;99.90
19363;DHT22;9817;50.80926400;5.16316200;2023-08-17T07:50:51;21.50;99.90
19363;DHT22;9817;50.80926400;5.16316200;2023-08-17T07:53:18;21.40;99.90
19363;DHT22;9817;50.80926400;5.16316200;2023-08-17T07:55:44;21.50;99.90
19363;DHT22;9817;50.80926400;5.16316200;2023-08-17T07:58:09;21.70;99.90
19363;DHT22;9817;50.80926400;5.16316200;2023-08-17T08:00:35;21.60;99.90
19363;DHT22;9817;50.80926400;5.16316200;2023-08-17T08:03:01;21.70;99.90
19363;DHT22;9817;50.80926400;5.16316200;2023-08-17T08:05:26;21.90;99.90
19363;DHT22;9817;50.80926400;5.16316200;2023-08-17T08:07:53;22.10;99.90
19363;DHT22;9817;50.80926400;5.16316200;2023-08-17T08:10:18;22.10;99.90
19363;DHT22;9817;50.80926400;5.16316200;2023-08-17T08:12:44;22.30;99.90
19363;DHT22;9817;50.80926400;5.16316200;2023-08-17T08:15:10;22.50;99.90
19363;DHT22;9817;50.80926400;5.16316200;2023-08-17T08:17:35;22.70;99.90
19363;DHT22;9817;50.80926400;5.16316200;2023-08-17T08:20:01;22.90;99.90
19363;DHT22;9817;50.80926400;5.16316200;2023-08-17T08:22:27;22.90;99.90
19363;DHT22;9817;50.80926400;5.16316200;2023-08-17T08:24:53;23.00;99.90
19363;DHT22;9817;50.80926400;5.16316200;2023-08-17T08:27:19;22.90;99.90
19363;DHT22;9817;50.80926400;5.16316200;2023-08-17T08:29:44;23.10;99.90
19363;DHT22;9817;50.80926400;5.16316200;2023-08-17T08:32:10;23.30;99.90
19363;DHT22;9817;50.80926400;5.16316200;2023-08-17T08:34:36;23.40;99.90
19363;DHT22;9817;50.80926400;5.16316200;2023-08-17T08:37:01;23.20;99.90
19363;DHT22;9817;50.80926400;5.16316200;2023-08-17T08:39:27;23.30;99.90
19363;DHT22;9817;50.80926400;5.16316200;2023-08-17T08:41:53;23.40;99.90
19363;DHT22;9817;50.80926400;5.16316200;2023-08-17T08:44:20;23.30;99.90
19363;DHT22;9817;50.80926400;5.16316200;2023-08-17T08:46:46;23.20;99.90
19363;DHT22;9817;50.80926400;5.16316200;2023-08-17T08:49:12;23.40;99.90
19363;DHT22;9817;50.80926400;5.16316200;2023-08-17T08:51:43;23.80;99.90
19363;DHT22;9817;50.80926400;5.16316200;2023-08-17T08:54:13;24.40;99.90
19363;DHT22;9817;50.80926400;5.16316200;2023-08-17T08:56:41;25.70;99.90
19363;DHT22;9817;50.80926400;5.16316200;2023-08-17T08:59:08;26.40;99.90
19363;DHT22;9817;50.80926400;5.16316200;2023-08-17T09:01:35;26.60;99.90
19363;DHT22;9817;50.80926400;5.16316200;2023-08-17T09:04:01;26.50;99.90
19363;DHT22;9817;50.80926400;5.16316200;2023-08-17T09:06:29;26.30;99.90
19363;DHT22;9817;50.80926400;5.16316200;2023-08-17T09:08:56;26.10;99.90
19363;DHT22;9817;50.80926400;5.16316200;2023-08-17T09:11:22;25.90;99.90
19363;DHT22;9817;50.80926400;5.16316200;2023-08-17T09:13:48;25.60;99.90
19363;DHT22;9817;50.80926400;5.16316200;2023-08-17T09:16:14;25.40;99.90
19363;DHT22;9817;50.80926400;5.16316200;2023-08-17T09:18:39;25.30;99.90
19363;DHT22;9817;50.80926400;5.16316200;2023-08-17T09:21:05;25.10;99.90
19363;DHT22;9817;50.80926400;5.16316200;2023-08-17T09:23:31;24.70;99.90
19363;DHT22;9817;50.80926400;5.16316200;2023-08-17T09:25:57;24.40;99.90
19363;DHT22;9817;50.80926400;5.16316200;2023-08-17T09:28:25;24.40;99.90
19363;DHT22;9817;50.80926400;5.16316200;2023-08-17T09:33:21;24.30;99.90
19363;DHT22;9817;50.80926400;5.16316200;2023-08-17T09:35:48;24.20;99.90
19363;DHT22;9817;50.80926400;5.16316200;2023-08-17T09:38:14;24.10;99.90
19363;DHT22;9817;50.80926400;5.16316200;2023-08-17T09:40:40;23.90;99.90
19363;DHT22;9817;50.80926400;5.16316200;2023-08-17T09:43:06;23.70;99.90
19363;DHT22;9817;50.80926400;5.16316200;2023-08-17T09:45:31;23.70;99.90
19363;DHT22;9817;50.80926400;5.16316200;2023-08-17T09:48:01;23.80;99.90
19363;DHT22;9817;50.80926400;5.16316200;2023-08-17T09:50:26;23.80;99.90
19363;DHT22;9817;50.80926400;5.16316200;2023-08-17T09:52:55;23.40;99.90
19363;DHT22;9817;50.80926400;5.16316200;2023-08-17T09:55:24;23.50;99.90
19363;DHT22;9817;50.80926400;5.16316200;2023-08-17T09:57:51;23.40;99.90
19363;DHT22;9817;50.80926400;5.16316200;2023-08-17T10:00:19;23.40;99.90
19363;DHT22;9817;50.80926400;5.16316200;2023-08-17T10:02:45;23.20;99.90
19363;DHT22;9817;50.80926400;5.16316200;2023-08-17T10:05:18;23.60;99.90
19363;DHT22;9817;50.80926400;5.16316200;2023-08-17T10:07:47;23.60;99.90
19363;DHT22;9817;50.80926400;5.16316200;2023-08-17T10:10:21;23.60;99.90
19363;DHT22;9817;50.80926400;5.16316200;2023-08-17T10:13:01;23.40;99.90
19363;DHT22;9817;50.80926400;5.16316200;2023-08-17T10:15:34;23.60;99.90
19363;DHT22;9817;50.80926400;5.16316200;2023-08-17T10:20:54;24.20;99.90
19363;DHT22;9817;50.80926400;5.16316200;2023-08-17T10:23:24;24.20;99.90
19363;DHT22;9817;50.80926400;5.16316200;2023-08-17T10:25:50;24.40;99.90
19363;DHT22;9817;50.80926400;5.16316200;2023-08-17T10:28:17;24.50;99.90
19363;DHT22;9817;50.80926400;5.16316200;2023-08-17T10:30:43;24.40;99.90
19363;DHT22;9817;50.80926400;5.16316200;2023-08-17T10:33:10;24.50;99.90
19363;DHT22;9817;50.80926400;5.16316200;2023-08-17T10:35:36;24.60;99.90
19363;DHT22;9817;50.80926400;5.16316200;2023-08-17T10:38:03;24.80;99.90
19363;DHT22;9817;50.80926400;5.16316200;2023-08-17T10:40:35;24.80;99.90
19363;DHT22;9817;50.80926400;5.16316200;2023-08-17T10:43:02;24.80;99.90
19363;DHT22;9817;50.80926400;5.16316200;2023-08-17T10:45:30;24.50;99.90
19363;DHT22;9817;50.80926400;5.16316200;2023-08-17T10:50:35;24.20;99.90
19363;DHT22;9817;50.80926400;5.16316200;2023-08-17T10:53:11;24.20;99.90
19363;DHT22;9817;50.80926400;5.16316200;2023-08-17T10:55:38;24.20;99.90
19363;DHT22;9817;50.80926400;5.16316200;2023-08-17T10:58:06;24.30;99.90
19363;DHT22;9817;50.80926400;5.16316200;2023-08-17T11:00:37;24.30;99.90
19363;DHT22;9817;50.80926400;5.16316200;2023-08-17T11:03:08;24.60;99.90
19363;DHT22;9817;50.80926400;5.16316200;2023-08-17T11:05:48;24.80;99.90
19363;DHT22;9817;50.80926400;5.16316200;2023-08-17T11:11:03;24.60;99.90
19363;DHT22;9817;50.80926400;5.16316200;2023-08-17T11:13:31;24.80;99.90
19363;DHT22;9817;50.80926400;5.16316200;2023-08-17T11:15:58;24.90;99.90
19363;DHT22;9817;50.80926400;5.16316200;2023-08-17T11:18:24;24.90;99.90
19363;DHT22;9817;50.80926400;5.16316200;2023-08-17T11:20:50;24.60;99.90
19363;DHT22;9817;50.80926400;5.16316200;2023-08-17T11:23:16;24.60;99.90
19363;DHT22;9817;50.80926400;5.16316200;2023-08-17T11:25:42;24.60;99.90
19363;DHT22;9817;50.80926400;5.16316200;2023-08-17T11:28:08;24.70;99.90
19363;DHT22;9817;50.80926400;5.16316200;2023-08-17T11:30:35;24.80;99.90
19363;DHT22;9817;50.80926400;5.16316200;2023-08-17T11:33:05;24.70;99.90
19363;DHT22;9817;50.80926400;5.16316200;2023-08-17T11:35:31;24.40;99.90
19363;DHT22;9817;50.80926400;5.16316200;2023-08-17T11:37:57;24.30;99.90
19363;DHT22;9817;50.80926400;5.16316200;2023-08-17T11:40:23;24.30;99.90
19363;DHT22;9817;50.80926400;5.16316200;2023-08-17T11:42:49;24.20;99.90
19363;DHT22;9817;50.80926400;5.16316200;2023-08-17T11:45:15;24.20;99.90
19363;DHT22;9817;50.80926400;5.16316200;2023-08-17T11:47:41;24.20;99.90
19363;DHT22;9817;50.80926400;5.16316200;2023-08-17T11:50:10;24.10;99.90
19363;DHT22;9817;50.80926400;5.16316200;2023-08-17T11:52:36;24.30;99.90
19363;DHT22;9817;50.80926400;5.16316200;2023-08-17T11:55:03;24.40;99.90
19363;DHT22;9817;50.80926400;5.16316200;2023-08-17T11:57:31;24.40;99.90
19363;DHT22;9817;50.80926400;5.16316200;2023-08-17T11:59:58;24.70;99.90
19363;DHT22;9817;50.80926400;5.16316200;2023-08-17T12:02:24;25.00;99.90
19363;DHT22;9817;50.80926400;5.16316200;2023-08-17T12:04:51;25.30;99.90
19363;DHT22;9817;50.80926400;5.16316200;2023-08-17T12:07:17;25.30;99.90
19363;DHT22;9817;50.80926400;5.16316200;2023-08-17T12:09:44;25.30;99.90
19363;DHT22;9817;50.80926400;5.16316200;2023-08-17T12:12:11;25.30;99.90
19363;DHT22;9817;50.80926400;5.16316200;2023-08-17T12:14:39;25.30;99.90
19363;DHT22;9817;50.80926400;5.16316200;2023-08-17T12:17:06;25.60;99.90
19363;DHT22;9817;50.80926400;5.16316200;2023-08-17T12:19:32;25.40;99.90
19363;DHT22;9817;50.80926400;5.16316200;2023-08-17T12:21:57;25.20;99.90
19363;DHT22;9817;50.80926400;5.16316200;2023-08-17T12:24:26;25.00;99.90
19363;DHT22;9817;50.80926400;5.16316200;2023-08-17T12:26:52;25.00;99.90
19363;DHT22;9817;50.80926400;5.16316200;2023-08-17T12:29:22;24.90;99.90
19363;DHT22;9817;50.80926400;5.16316200;2023-08-17T12:31:47;24.80;99.90
19363;DHT22;9817;50.80926400;5.16316200;2023-08-17T12:34:13;24.60;99.90
19363;DHT22;9817;50.80926400;5.16316200;2023-08-17T12:36:39;24.70;99.90
19363;DHT22;9817;50.80926400;5.16316200;2023-08-17T12:39:08;24.70;99.90
19363;DHT22;9817;50.80926400;5.16316200;2023-08-17T12:41:33;24.40;99.90
19363;DHT22;9817;50.80926400;5.16316200;2023-08-17T12:43:59;24.20;99.90
19363;DHT22;9817;50.80926400;5.16316200;2023-08-17T12:46:26;24.20;99.90
19363;DHT22;9817;50.80926400;5.16316200;2023-08-17T12:48:52;24.40;99.90
19363;DHT22;9817;50.80926400;5.16316200;2023-08-17T12:51:17;24.40;99.90
19363;DHT22;9817;50.80926400;5.16316200;2023-08-17T12:53:43;24.40;99.90
19363;DHT22;9817;50.80926400;5.16316200;2023-08-17T12:56:09;24.60;99.90
19363;DHT22;9817;50.80926400;5.16316200;2023-08-17T12:58:34;24.70;99.90
19363;DHT22;9817;50.80926400;5.16316200;2023-08-17T13:01:00;24.60;99.90
19363;DHT22;9817;50.80926400;5.16316200;2023-08-17T13:03:26;24.80;99.90
19363;DHT22;9817;50.80926400;5.16316200;2023-08-17T13:05:51;24.80;99.90
19363;DHT22;9817;50.80926400;5.16316200;2023-08-17T13:08:17;24.70;99.90
19363;DHT22;9817;50.80926400;5.16316200;2023-08-17T13:10:42;24.70;99.90
19363;DHT22;9817;50.80926400;5.16316200;2023-08-17T13:13:08;24.90;99.90
19363;DHT22;9817;50.80926400;5.16316200;2023-08-17T13:15:34;25.20;99.90
19363;DHT22;9817;50.80926400;5.16316200;2023-08-17T13:18:00;25.30;99.90
19363;DHT22;9817;50.80926400;5.16316200;2023-08-17T13:20:26;25.70;99.90
19363;DHT22;9817;50.80926400;5.16316200;2023-08-17T13:22:52;26.10;99.90
19363;DHT22;9817;50.80926400;5.16316200;2023-08-17T13:25:17;26.40;99.90
19363;DHT22;9817;50.80926400;5.16316200;2023-08-17T13:27:43;26.60;99.90
19363;DHT22;9817;50.80926400;5.16316200;2023-08-17T13:30:09;26.40;99.90
19363;DHT22;9817;50.80926400;5.16316200;2023-08-17T13:32:35;26.40;99.90
19363;DHT22;9817;50.80926400;5.16316200;2023-08-17T13:35:02;26.30;99.90
19363;DHT22;9817;50.80926400;5.16316200;2023-08-17T13:37:28;26.20;99.90
19363;DHT22;9817;50.80926400;5.16316200;2023-08-17T13:39:54;26.20;99.90
19363;DHT22;9817;50.80926400;5.16316200;2023-08-17T13:42:20;26.10;99.90